createdAt,value
2017-07-30T00:00:16.252Z,92.7
2017-07-30T00:01:23.401Z,92.6
2017-07-30T00:02:30.900Z,93.1
2017-07-30T00:03:38.382Z,93.1
2017-07-30T00:04:46.166Z,93.2
2017-07-30T00:05:53.317Z,93
2017-07-30T00:07:00.803Z,92.8
2017-07-30T00:08:08.295Z,93.4
2017-07-30T00:09:15.784Z,93.1
2017-07-30T00:10:23.585Z,93
2017-07-30T00:11:31.075Z,92.7
2017-07-30T00:12:38.569Z,92.6
2017-07-30T00:13:45.392Z,92
2017-07-30T00:14:52.563Z,93.1
2017-07-30T00:16:00.014Z,92.6
2017-07-30T00:17:07.493Z,93.4
2017-07-30T00:18:14.969Z,93
2017-07-30T00:19:22.464Z,93.4
2017-07-30T00:20:29.612Z,93.3
2017-07-30T00:21:37.412Z,93.4
2017-07-30T00:22:44.895Z,92.6
2017-07-30T00:23:52.386Z,92.9
2017-07-30T00:24:59.861Z,91.7
2017-07-30T00:26:07.342Z,93.9
2017-07-30T00:27:15.125Z,93.3
2017-07-30T00:28:22.279Z,92.8
2017-07-30T00:29:29.767Z,93.8
2017-07-30T00:30:37.240Z,93.7
2017-07-30T00:31:44.734Z,93.7
2017-07-30T00:32:52.515Z,94.3
2017-07-30T00:33:59.993Z,93.9
2017-07-30T00:35:07.138Z,94.8
2017-07-30T00:36:14.623Z,94.6
2017-07-30T00:37:22.106Z,94
2017-07-30T00:38:29.897Z,93.9
2017-07-30T00:39:37.378Z,93.6
2017-07-30T00:40:44.866Z,94.5
2017-07-30T00:41:52.341Z,93.8
2017-07-30T00:42:59.824Z,93.1
2017-07-30T00:44:07.601Z,93.3
2017-07-30T00:45:14.751Z,93
2017-07-30T00:46:22.230Z,93.5
2017-07-30T00:47:29.713Z,92.8
2017-07-30T00:48:37.183Z,92.6
2017-07-30T00:49:44.960Z,93.8
2017-07-30T00:50:52.440Z,93.8
2017-07-30T00:51:59.917Z,93.4
2017-07-30T00:53:07.402Z,92.4
2017-07-30T00:54:14.898Z,93.4
2017-07-30T00:55:22.679Z,93.4
2017-07-30T00:56:30.160Z,92.2
2017-07-30T00:57:37.636Z,93.1
2017-07-30T00:58:44.799Z,93.3
2017-07-30T00:59:52.291Z,92.8
2017-07-30T01:00:59.418Z,93.9
2017-07-30T01:02:06.919Z,93
2017-07-30T01:03:14.403Z,93.8
2017-07-30T01:04:21.880Z,92.7
2017-07-30T01:05:29.360Z,93.4
2017-07-30T01:06:37.142Z,94
2017-07-30T01:07:44.623Z,93.1
2017-07-30T01:08:51.772Z,94.1
2017-07-30T01:09:59.257Z,92.8
2017-07-30T01:11:06.736Z,93.4
2017-07-30T01:12:14.517Z,93.9
2017-07-30T01:13:21.999Z,92.9
2017-07-30T01:14:29.479Z,93.4
2017-07-30T01:15:36.629Z,93.2
2017-07-30T01:16:43.791Z,93.1
2017-07-30T01:17:51.596Z,93.9
2017-07-30T01:18:58.765Z,93.8
2017-07-30T01:20:06.242Z,94.6
2017-07-30T01:21:13.723Z,93.9
2017-07-30T01:22:21.203Z,94.2
2017-07-30T01:23:28.982Z,93.5
2017-07-30T01:24:36.460Z,93.9
2017-07-30T01:25:43.604Z,93.6
2017-07-30T01:26:50.762Z,93.5
2017-07-30T01:27:58.243Z,94.3
2017-07-30T01:29:06.046Z,93.2
2017-07-30T01:30:13.524Z,93.6
2017-07-30T01:31:21.001Z,93
2017-07-30T01:32:28.485Z,93.2
2017-07-30T01:33:35.648Z,93.5
2017-07-30T01:34:43.424Z,93.8
2017-07-30T01:35:50.905Z,94.9
2017-07-30T01:36:58.388Z,94.6
2017-07-30T01:38:05.883Z,94.7
2017-07-30T01:39:13.033Z,94.5
2017-07-30T01:40:20.810Z,94.7
2017-07-30T01:41:28.288Z,94.3
2017-07-30T01:42:35.766Z,93.8
2017-07-30T01:43:42.922Z,93.7
2017-07-30T01:44:50.067Z,93.6
2017-07-30T01:45:57.855Z,94.5
2017-07-30T01:47:05.335Z,94.9
2017-07-30T01:48:12.482Z,94.8
2017-07-30T01:49:19.970Z,93.4
2017-07-30T01:50:27.447Z,93.4
2017-07-30T01:51:35.224Z,93.9
2017-07-30T01:52:42.704Z,94
2017-07-30T01:53:50.185Z,93.8
2017-07-30T01:54:57.667Z,94.5
2017-07-30T01:56:05.144Z,94.5
2017-07-30T01:57:12.931Z,94.8
2017-07-30T01:58:20.410Z,95.1
2017-07-30T01:59:27.888Z,95.3
2017-07-30T02:00:35.384Z,94.5
2017-07-30T02:01:42.860Z,94.8
2017-07-30T02:02:50.634Z,94.9
2017-07-30T02:03:57.785Z,95.3
2017-07-30T02:05:05.265Z,94.2
2017-07-30T02:06:12.746Z,94.3
2017-07-30T02:07:19.892Z,94.5
2017-07-30T02:08:27.348Z,94.5
2017-07-30T02:09:34.821Z,95.3
2017-07-30T02:10:42.300Z,94.8
2017-07-30T02:11:49.779Z,94.3
2017-07-30T02:12:57.263Z,95.5
2017-07-30T02:14:05.039Z,94.2
2017-07-30T02:15:12.194Z,95.3
2017-07-30T02:16:19.691Z,94.7
2017-07-30T02:17:27.180Z,94.6
2017-07-30T02:18:34.659Z,94
2017-07-30T02:19:42.437Z,94.5
2017-07-30T02:20:49.917Z,95.2
2017-07-30T02:21:57.397Z,95
2017-07-30T02:23:04.871Z,94.3
2017-07-30T02:24:12.352Z,94.1
2017-07-30T02:25:20.134Z,94.8
2017-07-30T02:26:27.611Z,95.2
2017-07-30T02:27:35.139Z,94.7
2017-07-30T02:28:42.625Z,94.6
2017-07-30T02:29:49.784Z,94.2
2017-07-30T02:30:57.562Z,94.7
2017-07-30T02:32:04.719Z,94.4
2017-07-30T02:33:12.196Z,95
2017-07-30T02:34:20.635Z,93.8
2017-07-30T02:35:28.117Z,94
2017-07-30T02:36:35.570Z,94.9
2017-07-30T02:37:43.065Z,94.7
2017-07-30T02:38:50.546Z,93.7
2017-07-30T02:39:58.029Z,94
2017-07-30T02:41:05.507Z,94
2017-07-30T02:42:13.293Z,94.9
2017-07-30T02:43:20.773Z,94.6
2017-07-30T02:44:28.258Z,95
2017-07-30T02:45:35.732Z,94.2
2017-07-30T02:47:49.629Z,94.4
2017-07-30T02:48:57.108Z,94.1
2017-07-30T02:50:04.589Z,94.7
2017-07-30T02:51:12.069Z,95
2017-07-30T02:52:19.219Z,94.8
2017-07-30T02:53:26.999Z,94.9
2017-07-30T02:54:34.501Z,94.8
2017-07-30T02:55:41.975Z,94.1
2017-07-30T02:56:49.460Z,95
2017-07-30T02:57:56.938Z,95
2017-07-30T02:59:04.719Z,94.5
2017-07-30T03:00:12.196Z,94.3
2017-07-30T03:01:19.681Z,94.9
2017-07-30T03:02:27.158Z,94.9
2017-07-30T03:03:34.638Z,94
2017-07-30T03:04:42.418Z,94.6
2017-07-30T03:05:49.901Z,94.2
2017-07-30T03:06:57.401Z,94.6
2017-07-30T03:08:04.882Z,94.2
2017-07-30T03:09:12.048Z,94.1
2017-07-30T03:10:19.831Z,94
2017-07-30T03:11:27.307Z,95.1
2017-07-30T03:12:34.786Z,94.8
2017-07-30T03:13:42.264Z,94.6
2017-07-30T03:14:49.751Z,94.4
2017-07-30T03:15:57.531Z,95
2017-07-30T03:17:05.017Z,94.9
2017-07-30T03:18:12.496Z,94.9
2017-07-30T03:19:19.651Z,94.3
2017-07-30T03:20:26.814Z,95.5
2017-07-30T03:21:34.659Z,95.3
2017-07-30T03:22:42.136Z,94.6
2017-07-30T03:23:49.643Z,94.9
2017-07-30T03:24:57.114Z,95.3
2017-07-30T03:26:04.596Z,95.3
2017-07-30T03:27:12.044Z,94.3
2017-07-30T03:28:19.553Z,95.1
2017-07-30T03:29:27.029Z,95.7
2017-07-30T03:30:34.512Z,94.8
2017-07-30T03:31:41.991Z,95.6
2017-07-30T03:32:49.767Z,94.8
2017-07-30T03:33:57.251Z,95.6
2017-07-30T03:35:04.731Z,95.3
2017-07-30T03:36:12.205Z,95.2
2017-07-30T03:37:34.334Z,96.2
2017-07-30T03:38:42.111Z,95
2017-07-30T03:39:49.257Z,94.5
2017-07-30T03:40:56.741Z,94.8
2017-07-30T03:42:03.885Z,94.9
2017-07-30T03:43:11.359Z,94.9
2017-07-30T03:44:19.141Z,95.5
2017-07-30T03:45:26.621Z,95.1
2017-07-30T03:46:34.105Z,94.8
2017-07-30T03:47:40.956Z,94.5
2017-07-30T03:48:48.438Z,95.5
2017-07-30T03:49:55.920Z,96.9
2017-07-30T03:51:03.073Z,96
2017-07-30T03:52:10.219Z,96.2
2017-07-30T03:53:17.704Z,96.2
2017-07-30T03:54:25.482Z,94.8
2017-07-30T03:55:32.637Z,95.6
2017-07-30T03:56:40.115Z,95.7
2017-07-30T03:57:47.603Z,95.6
2017-07-30T03:58:55.079Z,95.9
2017-07-30T04:00:02.860Z,94.6
2017-07-30T04:01:09.358Z,94.5
2017-07-30T04:02:16.834Z,94
2017-07-30T04:03:23.987Z,94.6
2017-07-30T04:04:31.469Z,94.1
2017-07-30T04:05:39.261Z,95
2017-07-30T04:06:46.405Z,95.8
2017-07-30T04:07:53.554Z,95.5
2017-07-30T04:09:00.699Z,96
2017-07-30T04:10:07.861Z,96.1
2017-07-30T04:11:15.640Z,95.5
2017-07-30T04:12:22.809Z,95
2017-07-30T04:13:30.291Z,94.8
2017-07-30T04:14:37.438Z,95.2
2017-07-30T04:15:44.919Z,94
2017-07-30T04:16:52.404Z,95.7
2017-07-30T04:17:59.885Z,95.8
2017-07-30T04:19:07.364Z,95.6
2017-07-30T04:20:14.846Z,95.5
2017-07-30T04:21:22.323Z,96
2017-07-30T04:22:29.778Z,95.7
2017-07-30T04:23:37.254Z,95.1
2017-07-30T04:24:44.732Z,95.1
2017-07-30T04:25:52.213Z,96.3
2017-07-30T04:26:59.366Z,96.4
2017-07-30T04:28:07.169Z,96.5
2017-07-30T04:29:14.647Z,96.4
2017-07-30T04:30:22.125Z,96.5
2017-07-30T04:31:29.605Z,96.1
2017-07-30T04:32:37.082Z,96.7
2017-07-30T04:33:44.555Z,96.9
2017-07-30T04:34:51.707Z,96.7
2017-07-30T04:35:59.183Z,96.7
2017-07-30T04:37:06.330Z,96.7
2017-07-30T04:38:13.812Z,95.7
2017-07-30T04:39:21.263Z,95.7
2017-07-30T04:40:28.742Z,95.5
2017-07-30T04:41:36.217Z,96
2017-07-30T04:42:43.697Z,96.3
2017-07-30T04:43:51.178Z,95.9
2017-07-30T04:44:58.957Z,96.3
2017-07-30T04:46:06.440Z,95.3
2017-07-30T04:47:13.917Z,95.7
2017-07-30T04:48:21.406Z,96.2
2017-07-30T04:49:28.561Z,96.5
2017-07-30T04:50:36.353Z,96.7
2017-07-30T04:51:43.837Z,96.3
2017-07-30T04:52:51.324Z,96.3
2017-07-30T04:53:58.803Z,96.5
2017-07-30T04:55:06.281Z,96.9
2017-07-30T04:56:13.766Z,96.8
2017-07-30T04:57:21.242Z,96.8
2017-07-30T04:58:28.721Z,96.7
2017-07-30T04:59:36.204Z,96.9
2017-07-30T05:00:43.685Z,96.7
2017-07-30T05:01:51.466Z,96.3
2017-07-30T05:02:58.949Z,96.1
2017-07-30T05:04:05.773Z,96.3
2017-07-30T05:05:13.253Z,95.9
2017-07-30T05:06:20.736Z,96
2017-07-30T05:07:28.516Z,96.7
2017-07-30T05:08:41.315Z,96.6
2017-07-30T05:09:48.818Z,96.7
2017-07-30T05:10:55.970Z,96.7
2017-07-30T05:12:03.457Z,96.5
2017-07-30T05:13:10.612Z,96.3
2017-07-30T05:14:18.089Z,95.6
2017-07-30T05:15:25.573Z,95.8
2017-07-30T05:16:32.727Z,96.2
2017-07-30T05:17:40.204Z,96.2
2017-07-30T05:18:47.666Z,96.5
2017-07-30T05:19:55.152Z,96.7
2017-07-30T05:21:02.646Z,96.7
2017-07-30T05:22:09.806Z,96.7
2017-07-30T05:23:17.287Z,96.1
2017-07-30T05:24:25.066Z,96.4
2017-07-30T05:25:32.549Z,95.7
2017-07-30T05:26:40.035Z,95.3
2017-07-30T05:27:47.517Z,95.1
2017-07-30T05:28:54.997Z,94.5
2017-07-30T05:30:02.787Z,94.6
2017-07-30T05:31:10.289Z,94.4
2017-07-30T05:32:17.776Z,94.4
2017-07-30T05:33:24.930Z,94.3
2017-07-30T05:34:32.429Z,94.5
2017-07-30T05:35:40.132Z,94.5
2017-07-30T05:36:47.615Z,94.6
2017-07-30T05:37:55.097Z,94.2
2017-07-30T05:39:02.584Z,94.1
2017-07-30T05:40:10.065Z,93.6
2017-07-30T05:41:17.852Z,93.7
2017-07-30T05:42:25.358Z,93.6
2017-07-30T05:43:32.840Z,93.1
2017-07-30T05:44:41.277Z,93.1
2017-07-30T05:45:48.778Z,93.3
2017-07-30T05:46:56.562Z,93.3
2017-07-30T05:48:04.042Z,93.1
2017-07-30T05:49:11.538Z,92.8
2017-07-30T05:50:18.706Z,92.3
2017-07-30T05:51:26.186Z,92.4
2017-07-30T05:52:33.672Z,92.3
2017-07-30T05:53:40.832Z,92.1
2017-07-30T05:54:48.314Z,91.7
2017-07-30T05:55:55.791Z,91.7
2017-07-30T05:57:02.959Z,91.7
2017-07-30T05:58:10.739Z,91.9
2017-07-30T05:59:18.223Z,91.9
2017-07-30T06:00:25.701Z,92.3
2017-07-30T06:01:33.194Z,91.7
2017-07-30T06:02:40.677Z,90.7
2017-07-30T06:03:47.801Z,91.3
2017-07-30T06:04:55.303Z,91.1
2017-07-30T06:06:02.787Z,90.7
2017-07-30T06:07:10.271Z,90.3
2017-07-30T06:08:17.417Z,90.5
2017-07-30T06:09:25.197Z,90.2
2017-07-30T06:10:32.680Z,90.3
2017-07-30T06:11:40.172Z,90.2
2017-07-30T06:12:47.334Z,90
2017-07-30T06:13:54.815Z,88
2017-07-30T06:15:02.308Z,89.1
2017-07-30T06:16:09.791Z,89.8
2017-07-30T06:17:17.266Z,87.9
2017-07-30T06:18:24.418Z,88
2017-07-30T06:19:31.913Z,87.5
2017-07-30T06:20:39.692Z,87
2017-07-30T06:21:47.179Z,87.3
2017-07-30T06:22:54.665Z,87.6
2017-07-30T06:24:01.820Z,87.2
2017-07-30T06:25:09.312Z,86.7
2017-07-30T06:26:17.099Z,86.3
2017-07-30T06:27:24.580Z,86
2017-07-30T06:28:32.059Z,85.4
2017-07-30T06:29:39.547Z,85.4
2017-07-30T06:30:47.027Z,85.7
2017-07-30T06:31:54.810Z,86.1
2017-07-30T06:33:02.287Z,86
2017-07-30T06:34:09.772Z,84.9
2017-07-30T06:35:16.925Z,85.5
2017-07-30T06:36:24.426Z,83.7
2017-07-30T06:37:31.881Z,85.1
2017-07-30T06:38:39.360Z,85.3
2017-07-30T06:39:46.844Z,84.3
2017-07-30T06:40:54.332Z,84.3
2017-07-30T06:42:01.809Z,83.4
2017-07-30T06:43:09.593Z,84.3
2017-07-30T06:44:17.080Z,81.7
2017-07-30T06:45:24.244Z,81.9
2017-07-30T06:46:31.743Z,83.1
2017-07-30T06:47:39.226Z,83.4
2017-07-30T06:48:47.010Z,81.8
2017-07-30T06:49:54.169Z,81
2017-07-30T06:51:01.317Z,82.2
2017-07-30T06:52:08.804Z,82
2017-07-30T06:53:16.290Z,80.2
2017-07-30T06:54:23.775Z,80
2017-07-30T06:55:31.263Z,80.5
2017-07-30T06:56:38.744Z,81.4
2017-07-30T06:57:46.233Z,83.1
2017-07-30T06:58:53.749Z,81.3
2017-07-30T07:00:01.526Z,79.8
2017-07-30T07:01:09.011Z,80.2
2017-07-30T07:02:16.499Z,80.4
2017-07-30T07:03:23.985Z,78.9
2017-07-30T07:04:31.466Z,81
2017-07-30T07:05:39.251Z,77.6
2017-07-30T07:06:46.409Z,77.8
2017-07-30T07:07:53.888Z,80.9
2017-07-30T07:09:01.372Z,79.1
2017-07-30T07:10:08.855Z,78.8
2017-07-30T07:11:16.646Z,76.7
2017-07-30T07:12:24.132Z,77.6
2017-07-30T07:13:31.613Z,76.8
2017-07-30T07:14:39.094Z,78.6
2017-07-30T07:15:46.582Z,79.1
2017-07-30T07:16:54.064Z,76.3
2017-07-30T07:18:01.549Z,77
2017-07-30T07:19:09.036Z,76.5
2017-07-30T07:20:16.532Z,75.5
2017-07-30T07:21:24.322Z,76
2017-07-30T07:22:31.805Z,76.1
2017-07-30T07:23:39.291Z,76.5
2017-07-30T07:24:46.489Z,75.1
2017-07-30T07:25:53.978Z,76.4
2017-07-30T07:27:01.807Z,75.6
2017-07-30T07:28:09.302Z,76.1
2017-07-30T07:29:16.783Z,75.1
2017-07-30T07:30:24.284Z,75.8
2017-07-30T07:31:31.769Z,74.7
2017-07-30T07:32:39.558Z,72.8
2017-07-30T07:33:47.053Z,72.3
2017-07-30T07:34:54.538Z,72.3
2017-07-30T07:36:01.714Z,73.4
2017-07-30T07:37:09.210Z,73.5
2017-07-30T07:38:16.994Z,74.3
2017-07-30T07:39:24.483Z,72.7
2017-07-30T07:40:31.968Z,74
2017-07-30T07:41:39.466Z,74.9
2017-07-30T07:42:46.620Z,72.6
2017-07-30T07:43:54.108Z,72.1
2017-07-30T07:45:01.596Z,74.1
2017-07-30T07:46:09.102Z,72.4
2017-07-30T07:47:16.587Z,71.5
2017-07-30T07:48:24.373Z,72.3
2017-07-30T07:49:31.865Z,73.3
2017-07-30T07:50:39.352Z,71.8
2017-07-30T07:51:46.841Z,76.6
2017-07-30T07:52:54.012Z,71.8
2017-07-30T07:54:01.804Z,71.7
2017-07-30T07:55:09.289Z,71.7
2017-07-30T07:56:16.774Z,73.2
2017-07-30T07:57:23.926Z,71.7
2017-07-30T07:58:31.418Z,73.5
2017-07-30T07:59:39.219Z,72
2017-07-30T08:00:46.719Z,72.2
2017-07-30T08:01:54.203Z,70.4
2017-07-30T08:03:01.381Z,69.8
2017-07-30T08:04:08.871Z,70.4
2017-07-30T08:05:16.658Z,71.1
2017-07-30T08:06:24.145Z,71.9
2017-07-30T08:07:31.301Z,68.8
2017-07-30T08:08:38.789Z,69.6
2017-07-30T08:09:46.273Z,69.9
2017-07-30T08:10:53.764Z,69.6
2017-07-30T08:12:01.248Z,70.6
2017-07-30T08:13:08.737Z,69.5
2017-07-30T08:14:16.216Z,68.2
2017-07-30T08:15:23.730Z,69.8
2017-07-30T08:16:31.508Z,66.3
2017-07-30T08:17:38.995Z,66.1
2017-07-30T08:18:46.485Z,66.3
2017-07-30T08:19:53.976Z,67.2
2017-07-30T08:21:01.467Z,67.2
2017-07-30T08:22:09.253Z,68.2
2017-07-30T08:23:16.745Z,67
2017-07-30T08:24:24.238Z,66.8
2017-07-30T08:25:31.725Z,66.8
2017-07-30T08:26:38.880Z,67.2
2017-07-30T08:27:46.044Z,68.9
2017-07-30T08:28:53.533Z,65.8
2017-07-30T08:30:01.021Z,68.2
2017-07-30T08:31:08.504Z,67.9
2017-07-30T08:32:15.988Z,66.8
2017-07-30T08:33:23.446Z,65.5
2017-07-30T08:34:30.932Z,66.1
2017-07-30T08:35:38.422Z,64.8
2017-07-30T08:36:45.912Z,67.5
2017-07-30T08:39:00.821Z,64.4
2017-07-30T08:40:07.913Z,65.8
2017-07-30T08:41:15.412Z,65.5
2017-07-30T08:42:22.902Z,64.3
2017-07-30T08:43:30.389Z,63.7
2017-07-30T08:44:38.189Z,64.8
2017-07-30T08:45:45.671Z,63.4
2017-07-30T08:46:53.158Z,63.3
2017-07-30T08:48:00.647Z,63
2017-07-30T08:49:08.161Z,63.4
2017-07-30T08:50:15.656Z,65.1
2017-07-30T08:51:23.148Z,64
2017-07-30T08:52:30.633Z,65.6
2017-07-30T08:53:38.141Z,62.6
2017-07-30T08:54:45.640Z,63
2017-07-30T08:55:53.098Z,62.8
2017-07-30T08:57:00.259Z,63.9
2017-07-30T08:58:07.747Z,62.5
2017-07-30T08:59:15.241Z,62.6
2017-07-30T09:00:22.731Z,63.7
2017-07-30T09:01:30.199Z,62.2
2017-07-30T09:02:37.682Z,62.8
2017-07-30T09:03:45.167Z,62.6
2017-07-30T09:04:52.656Z,62.7
2017-07-30T09:06:00.147Z,63.3
2017-07-30T09:07:07.307Z,61.6
2017-07-30T09:08:14.796Z,61
2017-07-30T09:09:22.288Z,60.9
2017-07-30T09:10:29.791Z,61.9
2017-07-30T09:11:37.278Z,61.7
2017-07-30T09:12:45.065Z,62.9
2017-07-30T09:13:52.560Z,60.7
2017-07-30T09:14:59.718Z,61.8
2017-07-30T09:16:07.202Z,59.4
2017-07-30T09:17:14.692Z,60.9
2017-07-30T09:18:22.481Z,61.9
2017-07-30T09:19:29.970Z,60.4
2017-07-30T09:20:37.477Z,60
2017-07-30T09:21:44.959Z,60.1
2017-07-30T09:22:51.798Z,59.6
2017-07-30T09:23:59.592Z,60.1
2017-07-30T09:25:07.075Z,59.5
2017-07-30T09:26:14.230Z,59.5
2017-07-30T09:27:21.737Z,59.1
2017-07-30T09:28:29.223Z,58.5
2017-07-30T09:29:36.730Z,59.9
2017-07-30T09:30:44.218Z,59
2017-07-30T09:31:51.384Z,58.2
2017-07-30T09:32:58.874Z,58.9
2017-07-30T09:34:06.369Z,58.3
2017-07-30T09:35:14.163Z,57
2017-07-30T09:36:21.653Z,58.7
2017-07-30T09:37:29.146Z,58.5
2017-07-30T09:38:35.978Z,58
2017-07-30T09:39:43.135Z,59.4
2017-07-30T09:40:50.598Z,58.1
2017-07-30T09:41:58.087Z,56.4
2017-07-30T09:43:05.579Z,58.3
2017-07-30T09:44:13.070Z,57
2017-07-30T09:45:20.556Z,57.3
2017-07-30T09:46:28.019Z,57.7
2017-07-30T09:47:35.517Z,58.3
2017-07-30T09:48:43.019Z,58
2017-07-30T09:49:50.510Z,60
2017-07-30T09:50:58.019Z,56.9
2017-07-30T09:52:05.512Z,57.1
2017-07-30T09:53:13.000Z,57.4
2017-07-30T09:54:20.489Z,54
2017-07-30T09:55:27.977Z,56.5
2017-07-30T09:56:35.768Z,55.6
2017-07-30T09:57:43.256Z,57.4
2017-07-30T09:58:50.796Z,57.6
2017-07-30T09:59:58.272Z,60
2017-07-30T10:01:05.777Z,54.4
2017-07-30T10:02:13.562Z,53.7
2017-07-30T10:03:21.058Z,54.5
2017-07-30T10:04:28.221Z,56.9
2017-07-30T10:05:35.709Z,53.5
2017-07-30T10:06:43.195Z,53.4
2017-07-30T10:07:51.047Z,54.4
2017-07-30T10:08:58.534Z,54.8
2017-07-30T10:10:06.037Z,52.8
2017-07-30T10:11:13.539Z,51.8
2017-07-30T10:12:20.021Z,53.3
2017-07-30T10:13:27.906Z,53
2017-07-30T10:14:35.060Z,51.7
2017-07-30T10:15:42.556Z,52
2017-07-30T10:16:50.038Z,53.2
2017-07-30T10:17:57.525Z,53
2017-07-30T10:19:05.000Z,52.5
2017-07-30T10:20:12.494Z,53.8
2017-07-30T10:21:19.983Z,54
2017-07-30T10:22:27.480Z,53.3
2017-07-30T10:23:34.978Z,52.9
2017-07-30T10:24:42.474Z,53
2017-07-30T10:25:49.979Z,54
2017-07-30T10:26:57.788Z,53.6
2017-07-30T10:29:27.053Z,52.1
2017-07-30T10:30:34.221Z,51.1
2017-07-30T10:31:41.064Z,52.1
2017-07-30T10:32:48.871Z,52.3
2017-07-30T10:33:56.339Z,53.6
2017-07-30T10:35:03.493Z,52.3
2017-07-30T10:36:10.668Z,53.2
2017-07-30T10:37:17.832Z,52.4
2017-07-30T10:38:24.986Z,49.3
2017-07-30T10:39:32.143Z,49.5
2017-07-30T10:40:39.624Z,50.9
2017-07-30T10:41:46.514Z,50
2017-07-30T10:42:54.033Z,49.5
2017-07-30T10:44:01.581Z,49.2
2017-07-30T10:45:09.090Z,51.4
2017-07-30T10:46:16.260Z,49.6
2017-07-30T10:47:23.739Z,50.7
2017-07-30T10:48:31.220Z,49
2017-07-30T10:49:38.729Z,47.3
2017-07-30T10:50:46.209Z,48.9
2017-07-30T10:51:52.705Z,47.5
2017-07-30T10:53:00.187Z,49.3
2017-07-30T10:54:07.336Z,49.4
2017-07-30T10:55:14.834Z,47.4
2017-07-30T10:56:21.985Z,47.2
2017-07-30T10:57:29.140Z,49.1
2017-07-30T10:58:36.289Z,47.8
2017-07-30T10:59:43.448Z,48
2017-07-30T11:00:51.236Z,45.8
2017-07-30T11:01:58.381Z,45.4
2017-07-30T11:03:05.214Z,47.5
2017-07-30T11:04:12.376Z,48.6
2017-07-30T11:05:19.867Z,46.1
2017-07-30T11:06:27.698Z,47
2017-07-30T11:07:34.527Z,48.5
2017-07-30T11:08:41.670Z,46.8
2017-07-30T11:09:48.828Z,48.3
2017-07-30T11:10:56.321Z,48.8
2017-07-30T11:12:04.171Z,47.4
2017-07-30T11:13:11.661Z,45.2
2017-07-30T11:14:19.150Z,46.3
2017-07-30T11:15:26.314Z,47.8
2017-07-30T11:16:33.838Z,45.5
2017-07-30T11:17:41.671Z,45.4
2017-07-30T11:18:49.160Z,44.9
2017-07-30T11:19:56.349Z,46
2017-07-30T11:21:03.846Z,44.7
2017-07-30T11:22:11.348Z,46.3
2017-07-30T11:23:19.142Z,46.4
2017-07-30T11:24:26.649Z,46.4
2017-07-30T11:25:34.144Z,45.6
2017-07-30T11:26:41.636Z,47
2017-07-30T11:27:49.130Z,45.4
2017-07-30T11:28:56.970Z,45
2017-07-30T11:30:04.457Z,46.8
2017-07-30T11:31:11.950Z,48.7
2017-07-30T11:32:19.439Z,48.2
2017-07-30T11:33:26.929Z,48.1
2017-07-30T11:34:34.774Z,48
2017-07-30T11:35:42.280Z,44.6
2017-07-30T11:36:49.775Z,45.8
2017-07-30T11:37:57.272Z,46.1
2017-07-30T11:39:04.778Z,45.8
2017-07-30T11:40:12.239Z,49.1
2017-07-30T11:41:19.740Z,47.2
2017-07-30T11:42:27.432Z,47.3
2017-07-30T11:43:34.942Z,47.4
2017-07-30T11:44:42.434Z,46.1
2017-07-30T11:45:50.289Z,45.2
2017-07-30T11:46:57.780Z,45.4
2017-07-30T11:48:05.276Z,46.9
2017-07-30T11:49:12.770Z,46.2
2017-07-30T11:50:20.264Z,46.4
2017-07-30T11:51:27.796Z,46.3
2017-07-30T11:52:35.295Z,45.4
2017-07-30T11:53:42.788Z,44.8
2017-07-30T11:54:49.966Z,46.8
2017-07-30T11:55:57.460Z,46.2
2017-07-30T11:57:05.299Z,45.7
2017-07-30T11:58:12.798Z,47.6
2017-07-30T11:59:20.286Z,46.2
2017-07-30T12:00:27.787Z,44.2
2017-07-30T12:01:35.279Z,44.3
2017-07-30T12:02:43.073Z,45.7
2017-07-30T12:03:50.567Z,45.7
2017-07-30T12:04:58.070Z,45.8
2017-07-30T12:06:05.561Z,44
2017-07-30T12:07:13.056Z,43.9
2017-07-30T12:08:20.535Z,44.3
2017-07-30T12:09:27.713Z,46.7
2017-07-30T12:10:35.207Z,45.4
2017-07-30T12:11:42.695Z,46.1
2017-07-30T12:12:50.192Z,45.5
2017-07-30T12:13:58.032Z,45.2
2017-07-30T12:15:05.529Z,46.7
2017-07-30T12:16:12.769Z,47.2
2017-07-30T12:17:20.264Z,44.5
2017-07-30T12:18:27.425Z,44.3
2017-07-30T12:19:35.287Z,43.6
2017-07-30T12:20:42.445Z,43.6
2017-07-30T12:21:49.975Z,43.9
2017-07-30T12:22:57.143Z,44.6
2017-07-30T12:24:03.974Z,44.1
2017-07-30T12:25:11.812Z,44.6
2017-07-30T12:26:19.312Z,44.7
2017-07-30T12:27:26.800Z,44.4
2017-07-30T12:28:33.635Z,47.2
2017-07-30T12:29:41.136Z,43.8
2017-07-30T12:30:48.604Z,46.2
2017-07-30T12:31:56.094Z,46.1
2017-07-30T12:33:03.588Z,43.4
2017-07-30T12:34:11.094Z,46.3
2017-07-30T12:35:18.254Z,45
2017-07-30T12:36:26.051Z,43.8
2017-07-30T12:37:33.544Z,44.2
2017-07-30T12:38:41.036Z,44.5
2017-07-30T12:40:03.151Z,44.5
2017-07-30T12:41:10.645Z,45.9
2017-07-30T12:42:18.107Z,44.9
2017-07-30T12:43:25.599Z,46.2
2017-07-30T12:44:33.096Z,46.7
2017-07-30T12:45:40.590Z,46.6
2017-07-30T12:46:47.758Z,43.8
2017-07-30T12:47:55.544Z,42.5
2017-07-30T12:49:03.056Z,43
2017-07-30T12:50:10.551Z,42.5
2017-07-30T12:51:18.041Z,43
2017-07-30T12:52:25.534Z,43.6
2017-07-30T12:53:33.009Z,45.4
2017-07-30T12:54:40.499Z,45
2017-07-30T12:55:47.988Z,42.1
2017-07-30T12:56:55.933Z,41.6
2017-07-30T12:58:03.086Z,43.1
2017-07-30T12:59:10.267Z,44.9
2017-07-30T13:00:17.757Z,46.2
2017-07-30T13:01:25.248Z,44.4
2017-07-30T13:02:32.744Z,44.6
2017-07-30T13:03:40.235Z,43
2017-07-30T13:04:48.268Z,43.8
2017-07-30T13:05:55.765Z,43.6
2017-07-30T13:07:03.261Z,43.5
2017-07-30T13:08:10.758Z,46.5
2017-07-30T13:09:18.248Z,46
2017-07-30T13:10:26.087Z,43.2
2017-07-30T13:11:33.246Z,45.2
2017-07-30T13:12:40.740Z,44.8
2017-07-30T13:13:48.384Z,44.6
2017-07-30T13:14:55.889Z,45.4
2017-07-30T13:16:03.731Z,44.6
2017-07-30T13:17:11.241Z,44.3
2017-07-30T13:18:18.741Z,46
2017-07-30T13:19:26.235Z,46.3
2017-07-30T13:20:33.733Z,44.4
2017-07-30T13:21:41.555Z,45.4
2017-07-30T13:22:49.042Z,45.5
2017-07-30T13:23:56.208Z,46.4
2017-07-30T13:25:03.697Z,47.8
2017-07-30T13:26:11.193Z,47.6
2017-07-30T13:27:18.701Z,46.2
2017-07-30T13:28:26.195Z,47.4
2017-07-30T13:29:33.691Z,47.5
2017-07-30T13:30:41.183Z,45.6
2017-07-30T13:31:48.684Z,46
2017-07-30T13:32:56.479Z,47.4
2017-07-30T13:34:03.975Z,46.2
2017-07-30T13:35:11.470Z,47
2017-07-30T13:36:18.654Z,47.2
2017-07-30T13:37:26.154Z,46.5
2017-07-30T13:38:33.640Z,46
2017-07-30T13:39:41.135Z,46.6
2017-07-30T13:40:48.628Z,46.3
2017-07-30T13:41:56.423Z,46.7
2017-07-30T13:43:03.924Z,46.8
2017-07-30T13:44:11.413Z,48.5
2017-07-30T13:45:18.904Z,46.1
2017-07-30T13:46:26.394Z,47.6
2017-07-30T13:47:34.185Z,45.7
2017-07-30T13:48:41.678Z,47.5
2017-07-30T13:49:49.172Z,46.5
2017-07-30T13:50:56.666Z,47.4
2017-07-30T13:52:04.153Z,47.1
2017-07-30T13:53:11.647Z,46.1
2017-07-30T13:54:19.172Z,46
2017-07-30T13:55:26.666Z,45.4
2017-07-30T13:56:33.828Z,45.9
2017-07-30T13:57:41.314Z,45.6
2017-07-30T13:58:49.103Z,46.5
2017-07-30T13:59:56.592Z,48.9
2017-07-30T14:01:04.083Z,46.3
2017-07-30T14:02:11.580Z,45.8
2017-07-30T14:03:19.077Z,44.7
2017-07-30T14:04:26.922Z,46.4
2017-07-30T14:05:34.408Z,46
2017-07-30T14:06:41.901Z,47.9
2017-07-30T14:07:49.400Z,48.2
2017-07-30T14:08:56.885Z,48.5
2017-07-30T14:10:04.722Z,48.5
2017-07-30T14:11:12.218Z,48.9
2017-07-30T14:12:19.393Z,48.9
2017-07-30T14:13:26.886Z,49.6
2017-07-30T14:14:34.051Z,48.8
2017-07-30T14:15:41.845Z,49.5
2017-07-30T14:16:49.331Z,49.9
2017-07-30T14:17:56.821Z,50.7
2017-07-30T14:19:04.307Z,50.9
2017-07-30T14:20:11.799Z,49.9
2017-07-30T14:21:19.599Z,49.9
2017-07-30T14:22:27.089Z,49.9
2017-07-30T14:23:34.250Z,50.8
2017-07-30T14:24:41.749Z,50.7
2017-07-30T14:25:49.239Z,48.2
2017-07-30T14:26:57.079Z,48.3
2017-07-30T14:28:04.572Z,47.8
2017-07-30T14:29:12.063Z,49.8
2017-07-30T14:30:19.231Z,48.6
2017-07-30T14:31:26.399Z,49.4
2017-07-30T14:32:34.245Z,49.4
2017-07-30T14:33:41.753Z,49.3
2017-07-30T14:34:49.248Z,49.9
2017-07-30T14:35:56.737Z,49.9
2017-07-30T14:37:04.224Z,50
2017-07-30T14:38:11.741Z,49.8
2017-07-30T14:39:19.230Z,49.7
2017-07-30T14:40:26.391Z,50.7
2017-07-30T14:41:33.909Z,51.6
2017-07-30T14:42:41.392Z,49.8
2017-07-30T14:43:48.905Z,50.1
2017-07-30T14:44:56.414Z,50.3
2017-07-30T14:46:03.576Z,51.2
2017-07-30T14:47:11.067Z,51
2017-07-30T14:48:18.559Z,50.8
2017-07-30T14:49:26.344Z,50.5
2017-07-30T14:50:33.845Z,51.4
2017-07-30T14:51:41.000Z,51.5
2017-07-30T14:52:48.161Z,51.4
2017-07-30T14:53:55.647Z,51.5
2017-07-30T14:55:03.440Z,53
2017-07-30T14:56:10.955Z,53.4
2017-07-30T14:57:18.433Z,51.7
2017-07-30T14:58:25.925Z,51.5
2017-07-30T14:59:33.416Z,51.2
2017-07-30T15:00:41.207Z,52.2
2017-07-30T15:01:48.701Z,51.6
2017-07-30T15:02:56.190Z,53.6
2017-07-30T15:04:03.352Z,52.4
2017-07-30T15:05:10.507Z,52.6
2017-07-30T15:06:17.665Z,52.3
2017-07-30T15:07:25.151Z,52.3
2017-07-30T15:08:32.794Z,53.5